createdAt,value
2018-08-25T00:01:11.646Z,95483.00
2018-08-25T00:06:41.044Z,95475.00
2018-08-25T00:12:10.329Z,95471.00
2018-08-25T00:17:40.846Z,95461.00
2018-08-25T00:23:10.204Z,95461.00
2018-08-25T00:28:40.093Z,95468.00
2018-08-25T00:34:09.515Z,95463.00
2018-08-25T00:39:38.748Z,95466.00
2018-08-25T00:45:09.034Z,95478.00
2018-08-25T00:50:39.644Z,95470.00
2018-08-25T00:56:09.971Z,95462.00
2018-08-25T01:01:39.340Z,95464.00
2018-08-25T01:07:08.633Z,95459.00
2018-08-25T01:12:37.851Z,95466.00
2018-08-25T01:18:07.964Z,95467.00
2018-08-25T01:23:37.285Z,95450.00
2018-08-25T01:29:06.740Z,95450.00
2018-08-25T01:34:35.996Z,95459.00
2018-08-25T01:40:05.451Z,95453.00
2018-08-25T01:45:34.644Z,95458.00
2018-08-25T01:51:03.876Z,95458.00
2018-08-25T01:56:33.119Z,95453.00
2018-08-25T02:02:02.355Z,95453.00
2018-08-25T02:07:31.695Z,95448.00
2018-08-25T02:13:01.039Z,95440.00
2018-08-25T02:18:30.424Z,95449.00
2018-08-25T02:23:59.696Z,95446.00
2018-08-25T02:29:28.969Z,95445.00
2018-08-25T02:34:58.181Z,95426.00
2018-08-25T02:40:27.501Z,95432.00
2018-08-25T02:45:56.750Z,95432.00
2018-08-25T02:51:26.052Z,95433.00
2018-08-25T02:56:55.287Z,95430.00
2018-08-25T03:02:24.496Z,95419.00
2018-08-25T03:07:53.817Z,95434.00
2018-08-25T03:13:23.040Z,95438.00
2018-08-25T03:18:52.311Z,95438.00
2018-08-25T03:24:21.683Z,95444.00
2018-08-25T03:29:50.911Z,95438.00
2018-08-25T03:35:20.295Z,95436.00
2018-08-25T03:40:49.512Z,95428.00
2018-08-25T03:46:18.907Z,95438.00
2018-08-25T03:51:48.131Z,95436.00
2018-08-25T03:57:17.487Z,95438.00
2018-08-25T04:02:46.799Z,95420.00
2018-08-25T04:08:16.237Z,95399.00
2018-08-25T04:13:45.570Z,95397.00
2018-08-25T04:19:18.772Z,95403.00
2018-08-25T04:24:48.008Z,95408.00
2018-08-25T04:30:17.322Z,95409.00
2018-08-25T04:35:46.668Z,95398.00
2018-08-25T04:41:16.205Z,95413.00
2018-08-25T04:46:45.361Z,95420.00
2018-08-25T04:52:14.796Z,95419.00
2018-08-25T04:57:44.099Z,95417.00
2018-08-25T05:03:13.521Z,95413.00
2018-08-25T05:08:42.858Z,95418.00
2018-08-25T05:14:12.374Z,95419.00
2018-08-25T05:19:41.710Z,95424.00
2018-08-25T05:25:11.094Z,95420.00
2018-08-25T05:30:40.506Z,95426.00
2018-08-25T05:36:09.855Z,95424.00
2018-08-25T05:41:39.278Z,95430.00
2018-08-25T05:47:08.704Z,95433.00
2018-08-25T05:52:41.949Z,95428.00
2018-08-25T05:58:11.236Z,95424.00
2018-08-25T06:03:40.554Z,95432.00
2018-08-25T06:09:12.060Z,95431.00
2018-08-25T06:14:41.721Z,95435.00
2018-08-25T06:20:12.463Z,95432.00
2018-08-25T06:25:41.761Z,95423.00
2018-08-25T06:31:11.435Z,95423.00
2018-08-25T06:36:40.844Z,95431.00
2018-08-25T06:42:10.170Z,95424.00
2018-08-25T06:47:39.500Z,95424.00
2018-08-25T06:53:09.082Z,95423.00
2018-08-25T06:58:38.336Z,95427.00
2018-08-25T07:04:07.779Z,95419.00
2018-08-25T07:09:37.140Z,95421.00
2018-08-25T07:15:07.059Z,95427.00
2018-08-25T07:20:36.237Z,95421.00
2018-08-25T07:26:05.606Z,95421.00
2018-08-25T07:31:34.828Z,95428.00
2018-08-25T07:37:04.117Z,95419.00
2018-08-25T07:42:33.387Z,95424.00
2018-08-25T07:48:02.672Z,95419.00
2018-08-25T07:53:31.959Z,95414.00
2018-08-25T07:59:01.233Z,95417.00
2018-08-25T08:04:30.508Z,95409.00
2018-08-25T08:09:59.696Z,95414.00
2018-08-25T08:15:29.065Z,95424.00
2018-08-25T08:20:58.244Z,95421.00
2018-08-25T08:26:27.884Z,95419.00
2018-08-25T08:31:57.139Z,95409.00
2018-08-25T08:37:26.487Z,95406.00
2018-08-25T08:42:55.802Z,95414.00
2018-08-25T08:48:25.110Z,95403.00
2018-08-25T08:53:54.296Z,95410.00
2018-08-25T08:59:23.639Z,95412.00
2018-08-25T09:04:52.896Z,95413.00
2018-08-25T09:10:22.131Z,95426.00
2018-08-25T09:15:51.373Z,95421.00
2018-08-25T09:21:20.884Z,95419.00
2018-08-25T09:26:50.266Z,95416.00
2018-08-25T09:32:19.522Z,95418.00
2018-08-25T09:37:48.776Z,95419.00
2018-08-25T09:43:18.084Z,95402.00
2018-08-25T09:48:47.504Z,95404.00
2018-08-25T09:54:18.835Z,95402.00
2018-08-25T09:59:48.165Z,95412.00
2018-08-25T10:05:17.641Z,95403.00
2018-08-25T10:10:46.929Z,95411.00
2018-08-25T10:16:16.248Z,95402.00
2018-08-25T10:21:45.605Z,95405.00
2018-08-25T10:27:14.924Z,95408.00
2018-08-25T10:32:44.398Z,95399.00
2018-08-25T10:38:13.856Z,95403.00
2018-08-25T10:43:43.188Z,95409.00
2018-08-25T10:49:12.608Z,95400.00
2018-08-25T10:54:42.033Z,95410.00
2018-08-25T11:00:12.026Z,95392.00
2018-08-25T11:05:42.195Z,95394.00
2018-08-25T11:11:11.811Z,95379.00
2018-08-25T11:16:41.444Z,95380.00
2018-08-25T11:22:11.004Z,95378.00
2018-08-25T11:27:42.437Z,95385.00
2018-08-25T11:33:14.511Z,95377.00
2018-08-25T11:38:46.336Z,95367.00
2018-08-25T11:44:18.204Z,95371.00
2018-08-25T11:49:48.502Z,95366.00
2018-08-25T11:55:18.444Z,95372.00
2018-08-25T12:00:48.936Z,95364.00
2018-08-25T12:06:21.247Z,95369.00
2018-08-25T12:11:53.164Z,95363.00
2018-08-25T12:17:23.559Z,95364.00
2018-08-25T12:22:56.926Z,95365.00
2018-08-25T12:28:26.479Z,95372.00
2018-08-25T12:33:58.823Z,95370.00
2018-08-25T12:39:29.097Z,95371.00
2018-08-25T12:45:00.788Z,95369.00
2018-08-25T12:50:30.461Z,95365.00
2018-08-25T12:55:59.747Z,95375.00
2018-08-25T13:01:29.212Z,95383.00
2018-08-25T13:07:01.831Z,95386.00
2018-08-25T13:12:36.008Z,95398.00
2018-08-25T13:18:10.141Z,95398.00
2018-08-25T13:23:43.552Z,95402.00
2018-08-25T13:29:16.344Z,95399.00
2018-08-25T13:34:48.649Z,95396.00
2018-08-25T13:40:20.470Z,95400.00
2018-08-25T13:45:51.284Z,95408.00
2018-08-25T13:51:21.514Z,95412.00
2018-08-25T13:56:52.061Z,95417.00
2018-08-25T14:02:22.438Z,95419.00
2018-08-25T14:08:03.165Z,95422.00
2018-08-25T14:13:32.355Z,95421.00
2018-08-25T14:19:10.691Z,95419.00
2018-08-25T14:24:43.722Z,95431.00
2018-08-25T14:30:13.721Z,95426.00
2018-08-25T14:35:43.519Z,95425.00
2018-08-25T14:41:15.672Z,95418.00
2018-08-25T14:46:46.220Z,95414.00
2018-08-25T14:52:17.621Z,95423.00
2018-08-25T14:57:50.621Z,95421.00
2018-08-25T15:03:22.118Z,95426.00
2018-08-25T15:08:54.381Z,95431.00
2018-08-25T15:14:25.379Z,95429.00
2018-08-25T15:19:56.309Z,95426.00
2018-08-25T15:25:27.083Z,95438.00
2018-08-25T15:30:56.791Z,95439.00
2018-08-25T15:36:39.965Z,95439.00
2018-08-25T15:42:15.457Z,95441.00
2018-08-25T15:47:44.945Z,95440.00
2018-08-25T15:53:14.990Z,95445.00
2018-08-25T15:58:45.002Z,95454.00
2018-08-25T16:04:16.613Z,95443.00
2018-08-25T16:09:46.183Z,95446.00
2018-08-25T16:15:15.588Z,95450.00
2018-08-25T16:20:45.035Z,95462.00
2018-08-25T16:26:15.200Z,95453.00
2018-08-25T16:31:45.083Z,95448.00
2018-08-25T16:37:15.781Z,95450.00
2018-08-25T16:42:45.100Z,95452.00
2018-08-25T16:48:14.797Z,95461.00
2018-08-25T16:53:44.133Z,95463.00
2018-08-25T16:59:13.475Z,95467.00
2018-08-25T17:04:43.100Z,95463.00
2018-08-25T17:10:12.890Z,95461.00
2018-08-25T17:15:42.322Z,95473.00
2018-08-25T17:21:12.336Z,95484.00
2018-08-25T17:26:43.443Z,95482.00
2018-08-25T17:32:13.014Z,95485.00
2018-08-25T17:37:42.532Z,95479.00
2018-08-25T17:43:12.301Z,95482.00
2018-08-25T17:48:41.732Z,95487.00
2018-08-25T17:54:11.683Z,95494.00
2018-08-25T17:59:41.076Z,95495.00
2018-08-25T18:05:10.581Z,95502.00
2018-08-25T18:10:39.994Z,95512.00
2018-08-25T18:16:09.325Z,95512.00
2018-08-25T18:21:38.636Z,95519.00
2018-08-25T18:27:07.919Z,95520.00
2018-08-25T18:32:40.939Z,95515.00
2018-08-25T18:38:11.901Z,95520.00
2018-08-25T18:43:41.863Z,95523.00
2018-08-25T18:49:11.260Z,95523.00
2018-08-25T18:54:41.914Z,95533.00
2018-08-25T19:00:11.924Z,95536.00
2018-08-25T19:05:41.849Z,95543.00
2018-08-25T19:11:11.775Z,95544.00
2018-08-25T19:16:41.843Z,95538.00
2018-08-25T19:22:11.631Z,95548.00
2018-08-25T19:27:42.356Z,95548.00
2018-08-25T19:33:12.172Z,95548.00
2018-08-25T19:38:42.225Z,95559.00
2018-08-25T19:44:12.044Z,95556.00
2018-08-25T19:49:41.679Z,95556.00
2018-08-25T19:55:11.188Z,95562.00
2018-08-25T20:00:40.748Z,95559.00
2018-08-25T20:06:10.429Z,95562.00
2018-08-25T20:11:40.852Z,95558.00
2018-08-25T20:17:10.437Z,95561.00
2018-08-25T20:22:40.245Z,95568.00
2018-08-25T20:28:09.869Z,95560.00
2018-08-25T20:33:39.481Z,95572.00
2018-08-25T20:39:09.826Z,95570.00
2018-08-25T20:44:39.401Z,95577.00
2018-08-25T20:50:10.179Z,95574.00
2018-08-25T20:55:40.630Z,95578.00
2018-08-25T21:01:10.145Z,95578.00
2018-08-25T21:06:40.537Z,95588.00
2018-08-25T21:12:09.908Z,95581.00
2018-08-25T21:17:39.624Z,95591.00
2018-08-25T21:23:10.147Z,95607.00
2018-08-25T21:28:39.727Z,95605.00
2018-08-25T21:34:09.139Z,95609.00
2018-08-25T21:39:39.245Z,95609.00
2018-08-25T21:45:08.800Z,95616.00
2018-08-25T21:50:38.387Z,95607.00
2018-08-25T21:56:07.660Z,95597.00
2018-08-25T22:01:40.966Z,95607.00
2018-08-25T22:07:11.978Z,95605.00
2018-08-25T22:12:41.520Z,95605.00
2018-08-25T22:18:12.942Z,95609.00
2018-08-25T22:23:42.430Z,95615.00
2018-08-25T22:29:11.684Z,95618.00
2018-08-25T22:34:41.192Z,95605.00
2018-08-25T22:40:10.633Z,95605.00
2018-08-25T22:45:40.764Z,95597.00
2018-08-25T22:51:10.230Z,95609.00
2018-08-25T22:56:39.445Z,95605.00
2018-08-25T23:02:08.737Z,95596.00
2018-08-25T23:07:38.270Z,95594.00
2018-08-25T23:13:08.528Z,95599.00
2018-08-25T23:18:37.900Z,95607.00
2018-08-25T23:24:07.104Z,95605.00
2018-08-25T23:29:38.345Z,95599.00
2018-08-25T23:35:07.688Z,95594.00
2018-08-25T23:40:36.945Z,95599.00
2018-08-25T23:46:06.185Z,95596.00
2018-08-25T23:51:35.508Z,95591.00
2018-08-25T23:57:04.864Z,95581.00
